sensor_id;sensor_type;location;lat;lon;timestamp;pressure;altitude;pressure_sealevel;temperature;humidity
2785;BME280;57944;48.722;9.316;2023-01-26T00:01:34;98615.06;;;1.70;100.00
2785;BME280;57944;48.722;9.316;2023-01-26T00:04:04;98609.59;;;1.76;100.00
2785;BME280;57944;48.722;9.316;2023-01-26T00:06:34;98607.06;;;1.76;100.00
2785;BME280;57944;48.722;9.316;2023-01-26T00:09:12;98602.28;;;1.73;100.00
2785;BME280;57944;48.722;9.316;2023-01-26T00:11:43;98595.22;;;1.67;100.00
2785;BME280;57944;48.722;9.316;2023-01-26T00:14:15;98591.78;;;1.68;100.00
2785;BME280;57944;48.722;9.316;2023-01-26T00:16:45;98592.94;;;1.64;100.00
2785;BME280;57944;48.722;9.316;2023-01-26T00:19:16;98594.78;;;1.62;100.00
2785;BME280;57944;48.722;9.316;2023-01-26T00:21:46;98595.59;;;1.62;100.00
2785;BME280;57944;48.722;9.316;2023-01-26T00:24:18;98583.13;;;1.61;100.00
2785;BME280;57944;48.722;9.316;2023-01-26T00:26:49;98584.41;;;1.55;100.00
2785;BME280;57944;48.722;9.316;2023-01-26T00:29:19;98580.84;;;1.58;100.00
2785;BME280;57944;48.722;9.316;2023-01-26T00:31:50;98570.81;;;1.58;100.00
2785;BME280;57944;48.722;9.316;2023-01-26T00:34:20;98566.00;;;1.66;100.00
2785;BME280;57944;48.722;9.316;2023-01-26T00:36:51;98562.34;;;1.59;100.00
2785;BME280;57944;48.722;9.316;2023-01-26T00:39:25;98550.22;;;1.64;100.00
2785;BME280;57944;48.722;9.316;2023-01-26T00:41:56;98558.44;;;1.66;100.00
2785;BME280;57944;48.722;9.316;2023-01-26T00:44:37;98550.66;;;1.69;100.00
2785;BME280;57944;48.722;9.316;2023-01-26T00:47:10;98550.81;;;1.67;100.00
2785;BME280;57944;48.722;9.316;2023-01-26T00:49:41;98548.78;;;1.50;100.00
2785;BME280;57944;48.722;9.316;2023-01-26T00:52:12;98548.25;;;1.46;100.00
2785;BME280;57944;48.722;9.316;2023-01-26T00:54:45;98536.91;;;1.31;100.00
2785;BME280;57944;48.722;9.316;2023-01-26T00:57:15;98539.81;;;1.36;100.00
2785;BME280;57944;48.722;9.316;2023-01-26T00:59:45;98534.69;;;1.38;100.00
2785;BME280;57944;48.722;9.316;2023-01-26T01:02:16;98538.69;;;1.40;100.00
2785;BME280;57944;48.722;9.316;2023-01-26T01:04:48;98533.22;;;1.35;100.00
2785;BME280;57944;48.722;9.316;2023-01-26T01:07:19;98533.25;;;1.24;100.00
2785;BME280;57944;48.722;9.316;2023-01-26T01:09:52;98537.50;;;1.23;100.00
2785;BME280;57944;48.722;9.316;2023-01-26T01:12:22;98532.91;;;1.28;100.00
2785;BME280;57944;48.722;9.316;2023-01-26T01:14:54;98530.03;;;1.33;100.00
2785;BME280;57944;48.722;9.316;2023-01-26T01:17:24;98529.13;;;1.34;100.00
2785;BME280;57944;48.722;9.316;2023-01-26T01:19:55;98530.72;;;1.35;100.00
2785;BME280;57944;48.722;9.316;2023-01-26T01:22:25;98529.13;;;1.34;100.00
2785;BME280;57944;48.722;9.316;2023-01-26T01:24:58;98531.44;;;1.26;100.00
2785;BME280;57944;48.722;9.316;2023-01-26T01:27:28;98521.19;;;1.18;100.00
2785;BME280;57944;48.722;9.316;2023-01-26T01:29:59;98537.84;;;1.19;100.00
2785;BME280;57944;48.722;9.316;2023-01-26T01:32:34;98529.75;;;1.15;100.00
2785;BME280;57944;48.722;9.316;2023-01-26T01:35:07;98533.75;;;1.18;100.00
2785;BME280;57944;48.722;9.316;2023-01-26T01:37:37;98529.81;;;1.25;100.00
2785;BME280;57944;48.722;9.316;2023-01-26T01:40:13;98525.97;;;1.21;100.00
2785;BME280;57944;48.722;9.316;2023-01-26T01:42:47;98525.59;;;1.25;100.00
2785;BME280;57944;48.722;9.316;2023-01-26T01:45:40;98516.38;;;1.26;100.00
2785;BME280;57944;48.722;9.316;2023-01-26T01:48:20;98518.06;;;1.25;100.00
2785;BME280;57944;48.722;9.316;2023-01-26T01:50:55;98510.31;;;1.28;100.00
2785;BME280;57944;48.722;9.316;2023-01-26T01:53:31;98523.47;;;1.21;100.00
2785;BME280;57944;48.722;9.316;2023-01-26T01:56:09;98520.03;;;1.22;100.00
2785;BME280;57944;48.722;9.316;2023-01-26T01:58:42;98511.84;;;1.08;100.00
2785;BME280;57944;48.722;9.316;2023-01-26T02:01:13;98517.09;;;1.05;100.00
2785;BME280;57944;48.722;9.316;2023-01-26T02:03:46;98515.38;;;1.17;100.00
2785;BME280;57944;48.722;9.316;2023-01-26T02:06:25;98504.31;;;1.08;100.00
2785;BME280;57944;48.722;9.316;2023-01-26T02:08:58;98516.19;;;1.06;100.00
2785;BME280;57944;48.722;9.316;2023-01-26T02:11:35;98509.31;;;1.08;100.00
2785;BME280;57944;48.722;9.316;2023-01-26T02:14:10;98502.03;;;1.05;100.00
2785;BME280;57944;48.722;9.316;2023-01-26T02:16:42;98505.75;;;0.90;100.00
2785;BME280;57944;48.722;9.316;2023-01-26T02:19:18;98499.59;;;0.83;100.00
2785;BME280;57944;48.722;9.316;2023-01-26T02:21:54;98492.50;;;0.88;100.00
2785;BME280;57944;48.722;9.316;2023-01-26T02:24:33;98497.22;;;0.70;100.00
2785;BME280;57944;48.722;9.316;2023-01-26T02:27:07;98493.22;;;0.79;100.00
2785;BME280;57944;48.722;9.316;2023-01-26T02:29:38;98495.13;;;0.98;100.00
2785;BME280;57944;48.722;9.316;2023-01-26T02:32:08;98490.22;;;0.96;100.00
2785;BME280;57944;48.722;9.316;2023-01-26T02:34:39;98481.06;;;1.06;100.00
2785;BME280;57944;48.722;9.316;2023-01-26T02:37:13;98474.56;;;1.04;100.00
2785;BME280;57944;48.722;9.316;2023-01-26T02:39:50;98479.69;;;1.02;100.00
2785;BME280;57944;48.722;9.316;2023-01-26T02:42:26;98471.72;;;0.97;100.00
2785;BME280;57944;48.722;9.316;2023-01-26T02:45:11;98475.88;;;0.87;100.00
2785;BME280;57944;48.722;9.316;2023-01-26T02:47:43;98465.63;;;0.79;100.00
2785;BME280;57944;48.722;9.316;2023-01-26T02:50:15;98469.94;;;0.77;100.00
2785;BME280;57944;48.722;9.316;2023-01-26T02:52:43;98465.88;;;0.64;100.00
2785;BME280;57944;48.722;9.316;2023-01-26T02:55:17;98470.66;;;0.68;100.00
2785;BME280;57944;48.722;9.316;2023-01-26T02:58:01;98471.31;;;0.70;100.00
2785;BME280;57944;48.722;9.316;2023-01-26T03:00:35;98471.69;;;0.65;100.00
2785;BME280;57944;48.722;9.316;2023-01-26T03:03:14;98464.03;;;0.66;100.00
2785;BME280;57944;48.722;9.316;2023-01-26T03:05:45;98461.28;;;0.70;100.00
2785;BME280;57944;48.722;9.316;2023-01-26T03:08:16;98451.41;;;0.57;100.00
2785;BME280;57944;48.722;9.316;2023-01-26T03:10:46;98448.91;;;0.57;100.00
2785;BME280;57944;48.722;9.316;2023-01-26T03:13:19;98448.09;;;0.56;100.00
2785;BME280;57944;48.722;9.316;2023-01-26T03:15:49;98437.59;;;0.62;100.00
2785;BME280;57944;48.722;9.316;2023-01-26T03:18:22;98439.44;;;0.60;100.00
2785;BME280;57944;48.722;9.316;2023-01-26T03:21:11;98434.88;;;0.54;100.00
2785;BME280;57944;48.722;9.316;2023-01-26T03:23:54;98434.66;;;0.46;100.00
2785;BME280;57944;48.722;9.316;2023-01-26T03:26:38;98442.63;;;0.62;100.00
2785;BME280;57944;48.722;9.316;2023-01-26T03:29:24;98425.19;;;0.50;100.00
2785;BME280;57944;48.722;9.316;2023-01-26T03:31:58;98430.56;;;0.45;100.00
2785;BME280;57944;48.722;9.316;2023-01-26T03:34:29;98430.56;;;0.45;100.00
2785;BME280;57944;48.722;9.316;2023-01-26T03:36:59;98430.09;;;0.51;100.00
2785;BME280;57944;48.722;9.316;2023-01-26T03:39:39;98434.41;;;0.60;100.00
2785;BME280;57944;48.722;9.316;2023-01-26T03:42:22;98427.25;;;0.56;100.00
2785;BME280;57944;48.722;9.316;2023-01-26T03:45:10;98432.28;;;0.56;100.00
2785;BME280;57944;48.722;9.316;2023-01-26T03:48:02;98425.56;;;0.45;100.00
2785;BME280;57944;48.722;9.316;2023-01-26T03:50:44;98429.88;;;0.43;100.00
2785;BME280;57944;48.722;9.316;2023-01-26T03:53:27;98428.31;;;0.31;100.00
2785;BME280;57944;48.722;9.316;2023-01-26T03:56:11;98434.13;;;0.31;100.00
2785;BME280;57944;48.722;9.316;2023-01-26T03:58:53;98428.41;;;0.40;100.00
2785;BME280;57944;48.722;9.316;2023-01-26T04:01:29;98437.88;;;0.48;100.00
2785;BME280;57944;48.722;9.316;2023-01-26T04:04:00;98436.94;;;0.49;100.00
2785;BME280;57944;48.722;9.316;2023-01-26T04:06:47;98438.16;;;0.66;100.00
2785;BME280;57944;48.722;9.316;2023-01-26T04:09:30;98435.78;;;0.64;100.00
2785;BME280;57944;48.722;9.316;2023-01-26T04:12:03;98435.31;;;0.71;100.00
2785;BME280;57944;48.722;9.316;2023-01-26T04:14:38;98433.81;;;0.79;100.00
2785;BME280;57944;48.722;9.316;2023-01-26T04:17:27;98429.25;;;0.73;100.00
2785;BME280;57944;48.722;9.316;2023-01-26T04:20:11;98420.81;;;0.74;100.00
2785;BME280;57944;48.722;9.316;2023-01-26T04:22:53;98435.44;;;0.58;100.00
2785;BME280;57944;48.722;9.316;2023-01-26T04:25:23;98423.13;;;0.66;100.00
2785;BME280;57944;48.722;9.316;2023-01-26T04:27:55;98417.31;;;0.65;100.00
2785;BME280;57944;48.722;9.316;2023-01-26T04:30:26;98416.41;;;0.55;100.00
2785;BME280;57944;48.722;9.316;2023-01-26T04:32:59;98419.72;;;0.56;100.00
2785;BME280;57944;48.722;9.316;2023-01-26T04:35:29;98421.94;;;0.27;100.00
2785;BME280;57944;48.722;9.316;2023-01-26T04:37:59;98415.09;;;0.29;100.00
2785;BME280;57944;48.722;9.316;2023-01-26T04:40:30;98420.59;;;0.22;100.00
2785;BME280;57944;48.722;9.316;2023-01-26T04:43:01;98411.81;;;0.17;100.00
2785;BME280;57944;48.722;9.316;2023-01-26T04:45:32;98412.47;;;0.30;100.00
2785;BME280;57944;48.722;9.316;2023-01-26T04:48:06;98413.47;;;0.28;100.00
2785;BME280;57944;48.722;9.316;2023-01-26T04:50:36;98406.66;;;0.30;100.00
2785;BME280;57944;48.722;9.316;2023-01-26T04:53:06;98399.03;;;0.20;100.00
2785;BME280;57944;48.722;9.316;2023-01-26T04:55:36;98391.53;;;0.20;100.00
2785;BME280;57944;48.722;9.316;2023-01-26T04:58:07;98402.81;;;0.14;100.00
2785;BME280;57944;48.722;9.316;2023-01-26T05:00:37;98402.81;;;0.03;100.00
2785;BME280;57944;48.722;9.316;2023-01-26T05:03:11;98403.25;;;-0.26;100.00
2785;BME280;57944;48.722;9.316;2023-01-26T05:05:41;98400.97;;;-0.29;100.00
2785;BME280;57944;48.722;9.316;2023-01-26T05:08:11;98391.88;;;-0.30;100.00
2785;BME280;57944;48.722;9.316;2023-01-26T05:10:42;98395.72;;;-0.26;100.00
2785;BME280;57944;48.722;9.316;2023-01-26T05:13:19;98398.81;;;-0.33;100.00
2785;BME280;57944;48.722;9.316;2023-01-26T05:16:08;98401.34;;;-0.22;100.00
2785;BME280;57944;48.722;9.316;2023-01-26T05:19:02;98403.72;;;0.02;100.00
2785;BME280;57944;48.722;9.316;2023-01-26T05:21:51;98399.06;;;-0.03;100.00
2785;BME280;57944;48.722;9.316;2023-01-26T05:24:22;98399.28;;;0.06;100.00
2785;BME280;57944;48.722;9.316;2023-01-26T05:27:16;98396.97;;;0.14;100.00
2785;BME280;57944;48.722;9.316;2023-01-26T05:29:58;98404.84;;;0.32;100.00
2785;BME280;57944;48.722;9.316;2023-01-26T05:32:32;98406.41;;;0.33;100.00
2785;BME280;57944;48.722;9.316;2023-01-26T05:35:07;98408.06;;;0.11;100.00
2785;BME280;57944;48.722;9.316;2023-01-26T05:37:37;98413.28;;;-0.14;100.00
2785;BME280;57944;48.722;9.316;2023-01-26T05:40:12;98414.09;;;-0.14;100.00
2785;BME280;57944;48.722;9.316;2023-01-26T05:42:43;98409.84;;;-0.36;100.00
2785;BME280;57944;48.722;9.316;2023-01-26T05:45:21;98412.78;;;-0.42;100.00
2785;BME280;57944;48.722;9.316;2023-01-26T05:47:55;98418.94;;;-0.46;100.00
2785;BME280;57944;48.722;9.316;2023-01-26T05:50:28;98409.59;;;-0.55;100.00
2785;BME280;57944;48.722;9.316;2023-01-26T05:53:13;98410.72;;;-0.48;100.00
2785;BME280;57944;48.722;9.316;2023-01-26T05:55:43;98416.09;;;-0.53;100.00
2785;BME280;57944;48.722;9.316;2023-01-26T05:58:14;98411.97;;;-0.54;100.00
2785;BME280;57944;48.722;9.316;2023-01-26T06:00:44;98414.63;;;-0.44;100.00
2785;BME280;57944;48.722;9.316;2023-01-26T06:03:22;98415.28;;;-0.42;100.00
2785;BME280;57944;48.722;9.316;2023-01-26T06:05:55;98410.28;;;-0.42;100.00
2785;BME280;57944;48.722;9.316;2023-01-26T06:08:36;98413.22;;;-0.59;100.00
2785;BME280;57944;48.722;9.316;2023-01-26T06:11:38;98420.53;;;-0.45;100.00
2785;BME280;57944;48.722;9.316;2023-01-26T06:14:20;98421.75;;;-0.51;100.00
2785;BME280;57944;48.722;9.316;2023-01-26T06:16:51;98420.41;;;-0.55;100.00
2785;BME280;57944;48.722;9.316;2023-01-26T06:19:23;98420.97;;;-0.51;100.00
2785;BME280;57944;48.722;9.316;2023-01-26T06:22:00;98425.53;;;-0.45;100.00
2785;BME280;57944;48.722;9.316;2023-01-26T06:24:31;98414.84;;;-0.47;100.00
2785;BME280;57944;48.722;9.316;2023-01-26T06:27:01;98418.22;;;-0.59;100.00
2785;BME280;57944;48.722;9.316;2023-01-26T06:29:34;98417.44;;;-0.60;100.00
2785;BME280;57944;48.722;9.316;2023-01-26T06:32:05;98415.72;;;-0.59;100.00
2785;BME280;57944;48.722;9.316;2023-01-26T06:34:35;98425.25;;;-0.64;100.00
2785;BME280;57944;48.722;9.316;2023-01-26T06:37:08;98425.38;;;-0.66;100.00
2785;BME280;57944;48.722;9.316;2023-01-26T06:39:40;98427.63;;;-0.74;100.00
2785;BME280;57944;48.722;9.316;2023-01-26T06:42:11;98424.34;;;-0.75;100.00
2785;BME280;57944;48.722;9.316;2023-01-26T06:44:42;98426.09;;;-0.88;100.00
2785;BME280;57944;48.722;9.316;2023-01-26T06:47:12;98428.75;;;-0.78;100.00
2785;BME280;57944;48.722;9.316;2023-01-26T06:49:43;98421.13;;;-0.77;100.00
2785;BME280;57944;48.722;9.316;2023-01-26T06:52:29;98419.38;;;-0.63;100.00
2785;BME280;57944;48.722;9.316;2023-01-26T06:55:14;98422.06;;;-0.78;100.00
2785;BME280;57944;48.722;9.316;2023-01-26T06:57:52;98419.34;;;-0.75;100.00
2785;BME280;57944;48.722;9.316;2023-01-26T07:00:41;98414.75;;;-0.81;100.00
2785;BME280;57944;48.722;9.316;2023-01-26T07:03:12;98426.16;;;-0.77;100.00
2785;BME280;57944;48.722;9.316;2023-01-26T07:05:43;98419.13;;;-0.72;100.00
2785;BME280;57944;48.722;9.316;2023-01-26T07:08:15;98415.56;;;-0.80;100.00
2785;BME280;57944;48.722;9.316;2023-01-26T07:10:46;98425.47;;;-0.68;100.00
2785;BME280;57944;48.722;9.316;2023-01-26T07:13:16;98430.00;;;-0.73;100.00
2785;BME280;57944;48.722;9.316;2023-01-26T07:15:46;98421.03;;;-0.75;100.00
2785;BME280;57944;48.722;9.316;2023-01-26T07:18:16;98424.44;;;-0.76;100.00
2785;BME280;57944;48.722;9.316;2023-01-26T07:20:47;98433.31;;;-0.83;100.00
2785;BME280;57944;48.722;9.316;2023-01-26T07:23:20;98432.47;;;-0.84;100.00
2785;BME280;57944;48.722;9.316;2023-01-26T07:25:50;98431.38;;;-0.80;100.00
2785;BME280;57944;48.722;9.316;2023-01-26T07:28:21;98432.94;;;-0.79;100.00
2785;BME280;57944;48.722;9.316;2023-01-26T07:30:52;98438.88;;;-0.80;100.00
2785;BME280;57944;48.722;9.316;2023-01-26T07:33:22;98438.66;;;-0.77;100.00
2785;BME280;57944;48.722;9.316;2023-01-26T07:35:53;98435.75;;;-0.95;100.00
2785;BME280;57944;48.722;9.316;2023-01-26T07:38:27;98442.34;;;-0.94;100.00
2785;BME280;57944;48.722;9.316;2023-01-26T07:40:57;98446.28;;;-1.02;100.00
2785;BME280;57944;48.722;9.316;2023-01-26T07:43:28;98441.88;;;-0.99;100.00
2785;BME280;57944;48.722;9.316;2023-01-26T07:45:58;98441.06;;;-0.99;100.00
2785;BME280;57944;48.722;9.316;2023-01-26T07:48:28;98443.50;;;-0.86;100.00
2785;BME280;57944;48.722;9.316;2023-01-26T07:51:03;98442.97;;;-0.79;100.00
2785;BME280;57944;48.722;9.316;2023-01-26T07:53:38;98441.16;;;-0.77;100.00
2785;BME280;57944;48.722;9.316;2023-01-26T07:56:13;98439.94;;;-0.71;100.00
2785;BME280;57944;48.722;9.316;2023-01-26T07:58:49;98444.34;;;-0.75;100.00
2785;BME280;57944;48.722;9.316;2023-01-26T08:01:20;98439.34;;;-0.75;100.00
2785;BME280;57944;48.722;9.316;2023-01-26T08:03:52;98438.00;;;-0.68;100.00
2785;BME280;57944;48.722;9.316;2023-01-26T08:06:22;98436.84;;;-0.75;100.00
2785;BME280;57944;48.722;9.316;2023-01-26T08:08:55;98432.50;;;-0.73;100.00
2785;BME280;57944;48.722;9.316;2023-01-26T08:11:26;98435.28;;;-1.00;100.00
2785;BME280;57944;48.722;9.316;2023-01-26T08:13:56;98434.59;;;-1.02;100.00
2785;BME280;57944;48.722;9.316;2023-01-26T08:16:27;98434.88;;;-1.06;100.00
2785;BME280;57944;48.722;9.316;2023-01-26T08:18:58;98431.72;;;-1.08;100.00
2785;BME280;57944;48.722;9.316;2023-01-26T08:21:29;98437.28;;;-1.05;100.00
2785;BME280;57944;48.722;9.316;2023-01-26T08:24:03;98436.72;;;-1.08;100.00
2785;BME280;57944;48.722;9.316;2023-01-26T08:26:33;98430.22;;;-1.11;100.00
2785;BME280;57944;48.722;9.316;2023-01-26T08:29:04;98426.91;;;-1.12;100.00
2785;BME280;57944;48.722;9.316;2023-01-26T08:31:34;98422.22;;;-0.92;100.00
2785;BME280;57944;48.722;9.316;2023-01-26T08:34:05;98431.59;;;-0.83;100.00
2785;BME280;57944;48.722;9.316;2023-01-26T08:36:37;98424.63;;;-0.91;100.00
2785;BME280;57944;48.722;9.316;2023-01-26T08:39:10;98431.97;;;-1.00;100.00
2785;BME280;57944;48.722;9.316;2023-01-26T08:41:43;98425.84;;;-0.96;100.00
2785;BME280;57944;48.722;9.316;2023-01-26T08:44:13;98427.38;;;-1.06;100.00
2785;BME280;57944;48.722;9.316;2023-01-26T08:46:43;98425.38;;;-1.01;100.00
2785;BME280;57944;48.722;9.316;2023-01-26T08:49:13;98426.28;;;-1.02;100.00
2785;BME280;57944;48.722;9.316;2023-01-26T08:51:43;98421.84;;;-0.99;100.00
2785;BME280;57944;48.722;9.316;2023-01-26T08:54:16;98419.66;;;-1.03;100.00
2785;BME280;57944;48.722;9.316;2023-01-26T08:56:47;98417.66;;;-0.98;100.00
2785;BME280;57944;48.722;9.316;2023-01-26T08:59:17;98415.84;;;-0.96;100.00
2785;BME280;57944;48.722;9.316;2023-01-26T09:01:48;98417.13;;;-0.91;100.00
2785;BME280;57944;48.722;9.316;2023-01-26T09:04:18;98413.28;;;-0.83;100.00
2785;BME280;57944;48.722;9.316;2023-01-26T09:06:48;98410.44;;;-0.79;100.00
2785;BME280;57944;48.722;9.316;2023-01-26T09:09:21;98408.72;;;-0.78;100.00
2785;BME280;57944;48.722;9.316;2023-01-26T09:11:54;98405.97;;;-0.86;100.00
2785;BME280;57944;48.722;9.316;2023-01-26T09:14:25;98409.38;;;-0.87;100.00
2785;BME280;57944;48.722;9.316;2023-01-26T09:16:55;98417.81;;;-0.88;100.00
2785;BME280;57944;48.722;9.316;2023-01-26T09:19:25;98407.59;;;-0.85;100.00
2785;BME280;57944;48.722;9.316;2023-01-26T09:21:57;98410.63;;;-0.93;100.00
2785;BME280;57944;48.722;9.316;2023-01-26T09:24:30;98410.63;;;-0.93;100.00
2785;BME280;57944;48.722;9.316;2023-01-26T09:27:00;98418.59;;;-0.88;100.00
2785;BME280;57944;48.722;9.316;2023-01-26T09:29:30;98419.97;;;-0.84;100.00
2785;BME280;57944;48.722;9.316;2023-01-26T09:32:01;98418.19;;;-0.71;100.00
2785;BME280;57944;48.722;9.316;2023-01-26T09:34:31;98424.03;;;-0.59;100.00
2785;BME280;57944;48.722;9.316;2023-01-26T09:37:01;98425.84;;;-0.61;100.00
2785;BME280;57944;48.722;9.316;2023-01-26T09:39:34;98425.97;;;-0.51;100.00
2785;BME280;57944;48.722;9.316;2023-01-26T09:42:31;98435.28;;;-0.64;100.00
2785;BME280;57944;48.722;9.316;2023-01-26T09:45:26;98431.50;;;-0.70;100.00
2785;BME280;57944;48.722;9.316;2023-01-26T09:48:20;98433.91;;;-0.69;100.00
2785;BME280;57944;48.722;9.316;2023-01-26T09:51:00;98433.13;;;-0.69;100.00
2785;BME280;57944;48.722;9.316;2023-01-26T09:53:43;98436.88;;;-0.63;100.00
2785;BME280;57944;48.722;9.316;2023-01-26T09:56:22;98437.69;;;-0.63;100.00
2785;BME280;57944;48.722;9.316;2023-01-26T09:58:59;98433.97;;;-0.46;100.00
2785;BME280;57944;48.722;9.316;2023-01-26T10:01:37;98427.00;;;-0.54;100.00
2785;BME280;57944;48.722;9.316;2023-01-26T10:04:19;98436.88;;;-0.63;100.00
2785;BME280;57944;48.722;9.316;2023-01-26T10:06:52;98430.84;;;-0.72;100.00
2785;BME280;57944;48.722;9.316;2023-01-26T10:09:47;98430.47;;;-0.68;100.00
2785;BME280;57944;48.722;9.316;2023-01-26T10:12:24;98420.50;;;-0.56;100.00
2785;BME280;57944;48.722;9.316;2023-01-26T10:15:02;98427.94;;;-0.32;100.00
2785;BME280;57944;48.722;9.316;2023-01-26T10:17:38;98430.56;;;-0.23;100.00
2785;BME280;57944;48.722;9.316;2023-01-26T10:20:26;98435.53;;;-0.56;100.00
2785;BME280;57944;48.722;9.316;2023-01-26T10:23:02;98442.16;;;-0.79;100.00
2785;BME280;57944;48.722;9.316;2023-01-26T10:25:38;98427.88;;;-0.66;100.00
2785;BME280;57944;48.722;9.316;2023-01-26T10:28:15;98423.94;;;-0.46;100.00
2785;BME280;57944;48.722;9.316;2023-01-26T10:30:47;98429.91;;;-0.36;100.00
2785;BME280;57944;48.722;9.316;2023-01-26T10:33:21;98428.88;;;-0.33;100.00
2785;BME280;57944;48.722;9.316;2023-01-26T10:35:53;98425.53;;;-0.34;100.00
2785;BME280;57944;48.722;9.316;2023-01-26T10:38:39;98431.81;;;-0.17;100.00
2785;BME280;57944;48.722;9.316;2023-01-26T10:41:26;98435.38;;;-0.19;100.00
2785;BME280;57944;48.722;9.316;2023-01-26T10:44:02;98426.47;;;-0.24;100.00
2785;BME280;57944;48.722;9.316;2023-01-26T10:46:36;98420.53;;;-0.45;100.00
2785;BME280;57944;48.722;9.316;2023-01-26T10:49:15;98422.03;;;-0.31;100.00
2785;BME280;57944;48.722;9.316;2023-01-26T10:52:06;98426.22;;;-0.43;100.00
2785;BME280;57944;48.722;9.316;2023-01-26T10:54:37;98427.38;;;-0.47;100.00
2785;BME280;57944;48.722;9.316;2023-01-26T10:57:18;98425.97;;;-0.51;100.00
2785;BME280;57944;48.722;9.316;2023-01-26T10:59:56;98423.41;;;-0.74;100.00
2785;BME280;57944;48.722;9.316;2023-01-26T11:02:29;98425.69;;;-0.71;100.00
2785;BME280;57944;48.722;9.316;2023-01-26T11:05:17;98424.19;;;-0.38;100.00
2785;BME280;57944;48.722;9.316;2023-01-26T11:07:50;98419.16;;;-0.49;100.00
2785;BME280;57944;48.722;9.316;2023-01-26T11:10:32;98416.53;;;-0.36;100.00
2785;BME280;57944;48.722;9.316;2023-01-26T11:13:13;98416.22;;;-0.32;100.00
2785;BME280;57944;48.722;9.316;2023-01-26T11:15:51;98408.03;;;-0.23;100.00
2785;BME280;57944;48.722;9.316;2023-01-26T11:18:40;98412.00;;;-0.31;100.00
2785;BME280;57944;48.722;9.316;2023-01-26T11:21:21;98408.13;;;-0.47;100.00
2785;BME280;57944;48.722;9.316;2023-01-26T11:24:02;98404.91;;;-0.60;100.00
2785;BME280;57944;48.722;9.316;2023-01-26T11:27:07;98398.56;;;-0.53;100.00
2785;BME280;57944;48.722;9.316;2023-01-26T11:30:09;98400.28;;;-0.31;100.00
2785;BME280;57944;48.722;9.316;2023-01-26T11:32:55;98398.94;;;-0.24;100.00
2785;BME280;57944;48.722;9.316;2023-01-26T11:35:35;98393.69;;;-0.20;100.00
2785;BME280;57944;48.722;9.316;2023-01-26T11:38:41;98391.19;;;-0.32;100.00
2785;BME280;57944;48.722;9.316;2023-01-26T11:41:24;98396.16;;;-0.54;100.00
2785;BME280;57944;48.722;9.316;2023-01-26T11:44:16;98396.16;;;-0.54;100.00
2785;BME280;57944;48.722;9.316;2023-01-26T11:47:12;98390.44;;;-0.68;100.00
2785;BME280;57944;48.722;9.316;2023-01-26T11:50:19;98393.47;;;-0.86;100.00
2785;BME280;57944;48.722;9.316;2023-01-26T11:53:12;98391.78;;;-0.86;100.00
2785;BME280;57944;48.722;9.316;2023-01-26T11:56:00;98391.66;;;-0.84;100.00
2785;BME280;57944;48.722;9.316;2023-01-26T11:58:41;98379.38;;;-0.76;100.00
2785;BME280;57944;48.722;9.316;2023-01-26T12:01:22;98381.88;;;-0.87;100.00
2785;BME280;57944;48.722;9.316;2023-01-26T12:03:56;98376.09;;;-0.77;100.00
2785;BME280;57944;48.722;9.316;2023-01-26T12:06:36;98373.41;;;-0.51;100.00
2785;BME280;57944;48.722;9.316;2023-01-26T12:09:16;98371.38;;;-0.24;100.00
2785;BME280;57944;48.722;9.316;2023-01-26T12:11:56;98372.63;;;-0.40;100.00
2785;BME280;57944;48.722;9.316;2023-01-26T12:14:33;98371.28;;;-0.22;100.00
2785;BME280;57944;48.722;9.316;2023-01-26T12:17:25;98366.03;;;0.04;100.00
2785;BME280;57944;48.722;9.316;2023-01-26T12:20:04;98357.03;;;-0.10;100.00
2785;BME280;57944;48.722;9.316;2023-01-26T12:22:49;98358.63;;;-0.43;100.00
2785;BME280;57944;48.722;9.316;2023-01-26T12:25:31;98357.94;;;-0.45;100.00
2785;BME280;57944;48.722;9.316;2023-01-26T12:28:13;98352.50;;;-0.50;100.00
2785;BME280;57944;48.722;9.316;2023-01-26T12:30:54;98344.75;;;-0.36;100.00
2785;BME280;57944;48.722;9.316;2023-01-26T12:33:27;98350.66;;;-0.26;100.00
2785;BME280;57944;48.722;9.316;2023-01-26T12:36:22;98349.53;;;-0.33;100.00
2785;BME280;57944;48.722;9.316;2023-01-26T12:39:18;98344.53;;;-0.33;100.00
2785;BME280;57944;48.722;9.316;2023-01-26T12:42:14;98340.06;;;-0.07;100.00
2785;BME280;57944;48.722;9.316;2023-01-26T12:44:53;98336.28;;;0.10;100.00
2785;BME280;57944;48.722;9.316;2023-01-26T12:47:31;98333.00;;;-0.02;100.00
2785;BME280;57944;48.722;9.316;2023-01-26T12:50:10;98320.50;;;-0.13;100.00
2785;BME280;57944;48.722;9.316;2023-01-26T12:52:47;98322.72;;;0.13;100.00
2785;BME280;57944;48.722;9.316;2023-01-26T12:55:26;98318.81;;;0.31;100.00
2785;BME280;57944;48.722;9.316;2023-01-26T12:58:01;98309.09;;;0.38;100.00
2785;BME280;57944;48.722;9.316;2023-01-26T13:00:34;98323.22;;;-0.05;100.00
2785;BME280;57944;48.722;9.316;2023-01-26T13:03:19;98322.78;;;-0.21;100.00
2785;BME280;57944;48.722;9.316;2023-01-26T13:05:57;98327.22;;;-0.13;100.00
2785;BME280;57944;48.722;9.316;2023-01-26T13:08:52;98326.22;;;-0.44;100.00
2785;BME280;57944;48.722;9.316;2023-01-26T13:11:48;98316.53;;;-0.60;100.00
2785;BME280;57944;48.722;9.316;2023-01-26T13:14:58;98318.06;;;-0.82;100.00
2785;BME280;57944;48.722;9.316;2023-01-26T13:17:57;98315.31;;;-0.90;100.00
2785;BME280;57944;48.722;9.316;2023-01-26T13:20:43;98316.00;;;-0.99;100.00
2785;BME280;57944;48.722;9.316;2023-01-26T13:23:40;98311.91;;;-1.00;100.00
2785;BME280;57944;48.722;9.316;2023-01-26T13:26:20;98313.34;;;-1.09;100.00
2785;BME280;57944;48.722;9.316;2023-01-26T13:29:32;98314.84;;;-1.06;100.00
2785;BME280;57944;48.722;9.316;2023-01-26T13:35:26;98305.22;;;-1.00;100.00
2785;BME280;57944;48.722;9.316;2023-01-26T13:38:13;98309.59;;;-1.03;100.00
2785;BME280;57944;48.722;9.316;2023-01-26T13:40:46;98312.81;;;-1.01;100.00
2785;BME280;57944;48.722;9.316;2023-01-26T13:43:28;98305.09;;;-0.87;100.00
2785;BME280;57944;48.722;9.316;2023-01-26T13:46:21;98305.19;;;-1.11;100.00
2785;BME280;57944;48.722;9.316;2023-01-26T13:48:56;98311.19;;;-1.14;100.00
2785;BME280;57944;48.722;9.316;2023-01-26T13:51:28;98309.16;;;-1.08;100.00
2785;BME280;57944;48.722;9.316;2023-01-26T13:54:03;98312.59;;;-0.98;100.00
2785;BME280;57944;48.722;9.316;2023-01-26T13:56:36;98309.97;;;-0.97;100.00
2785;BME280;57944;48.722;9.316;2023-01-26T13:59:11;98309.88;;;-0.84;100.00